createdAt,value
2023-11-11T00:02:49.540Z,70.47
2023-11-11T00:07:44.448Z,70.73
2023-11-11T00:12:40.004Z,72.83
2023-11-11T00:17:33.099Z,74.36
2023-11-11T00:22:26.136Z,75.21
2023-11-11T00:27:19.626Z,76.04
2023-11-11T00:32:14.356Z,76.95
2023-11-11T00:37:07.818Z,77.39
2023-11-11T00:42:03.358Z,77.78
2023-11-11T00:46:56.420Z,78.08
2023-11-11T00:51:50.910Z,78.03
2023-11-11T00:56:43.980Z,77.34
2023-11-11T01:01:37.055Z,76.92
2023-11-11T01:06:30.732Z,77.41
2023-11-11T01:11:27.085Z,77.90
2023-11-11T01:16:20.330Z,79.18
2023-11-11T01:21:13.626Z,80.39
2023-11-11T01:26:10.739Z,81.79
2023-11-11T01:31:05.591Z,83.65
2023-11-11T01:36:02.504Z,84.99
2023-11-11T01:40:55.932Z,86.54
2023-11-11T01:45:49.170Z,87.30
2023-11-11T01:50:44.437Z,87.57
2023-11-11T01:55:37.562Z,88.34
2023-11-11T02:00:31.430Z,88.66
2023-11-11T02:05:24.628Z,88.98
2023-11-11T02:10:19.468Z,89.49
2023-11-11T02:15:16.368Z,89.70
2023-11-11T02:20:12.981Z,90.25
2023-11-11T02:25:08.274Z,90.15
2023-11-11T02:30:03.308Z,90.16
2023-11-11T02:34:56.288Z,90.14
2023-11-11T02:39:49.318Z,90.16
2023-11-11T02:44:43.756Z,89.43
2023-11-11T02:49:36.769Z,89.57
2023-11-11T02:54:29.889Z,89.50
2023-11-11T02:59:22.931Z,89.95
2023-11-11T03:04:17.667Z,89.58
2023-11-11T03:09:11.768Z,89.63
2023-11-11T03:14:04.906Z,89.95
2023-11-11T03:18:58.072Z,89.97
2023-11-11T03:23:52.489Z,89.67
2023-11-11T03:28:45.447Z,89.56
2023-11-11T03:33:38.383Z,90.04
2023-11-11T03:38:31.394Z,90.14
2023-11-11T03:43:26.760Z,90.31
2023-11-11T03:48:20.108Z,90.17
2023-11-11T03:53:13.228Z,90.30
2023-11-11T03:58:06.228Z,90.07
2023-11-11T04:03:01.740Z,89.49
2023-11-11T04:07:55.710Z,88.93
2023-11-11T04:12:48.755Z,88.34
2023-11-11T04:17:45.366Z,87.86
2023-11-11T04:22:40.963Z,86.45
2023-11-11T04:27:33.972Z,83.79
2023-11-11T04:32:27.155Z,81.46
2023-11-11T04:37:20.170Z,80.59
2023-11-11T04:42:18.907Z,80.40
2023-11-11T04:47:12.176Z,80.56
2023-11-11T04:52:06.024Z,80.43
2023-11-11T04:56:59.924Z,80.85
2023-11-11T05:01:55.301Z,81.52
2023-11-11T05:06:48.582Z,81.23
2023-11-11T05:11:42.230Z,82.04
2023-11-11T05:16:41.467Z,83.09
2023-11-11T05:21:36.085Z,83.32
2023-11-11T05:26:29.667Z,82.24
2023-11-11T05:31:22.907Z,82.55
2023-11-11T05:36:16.122Z,81.84
2023-11-11T05:41:10.623Z,82.60
2023-11-11T05:46:03.615Z,82.67
2023-11-11T05:50:56.577Z,81.41
2023-11-11T05:55:49.635Z,81.42
2023-11-11T06:00:44.532Z,81.73
2023-11-11T06:05:37.698Z,81.86
2023-11-11T06:10:31.033Z,81.88
2023-11-11T06:15:24.712Z,81.44
2023-11-11T06:20:20.246Z,81.38
2023-11-11T06:25:13.303Z,80.85
2023-11-11T06:30:10.304Z,81.15
2023-11-11T06:35:04.963Z,81.47
2023-11-11T06:40:01.016Z,81.60
2023-11-11T06:44:54.124Z,81.05
2023-11-11T06:49:47.084Z,81.03
2023-11-11T06:54:42.687Z,81.17
2023-11-11T06:59:38.102Z,81.77
2023-11-11T07:04:31.201Z,81.87
2023-11-11T07:09:25.576Z,81.31
2023-11-11T07:14:20.672Z,80.44
2023-11-11T07:19:15.042Z,80.30
2023-11-11T07:24:08.167Z,80.25
2023-11-11T07:29:01.244Z,79.50
2023-11-11T07:33:56.244Z,78.98
2023-11-11T07:38:50.819Z,77.03
2023-11-11T07:43:43.866Z,72.47
2023-11-11T07:48:36.903Z,70.88
2023-11-11T07:53:30.116Z,71.25
2023-11-11T08:03:22.175Z,72.14
2023-11-11T08:08:17.009Z,72.40
2023-11-11T08:13:12.138Z,72.62
2023-11-11T08:18:06.943Z,73.99
2023-11-11T08:23:00.207Z,73.45
2023-11-11T08:27:53.376Z,74.18
2023-11-11T08:32:46.449Z,72.75
2023-11-11T08:37:41.061Z,72.11
2023-11-11T08:42:34.257Z,71.74
2023-11-11T08:47:27.326Z,71.63
2023-11-11T08:52:20.359Z,73.26
2023-11-11T08:57:21.136Z,71.97
2023-11-11T09:08:31.900Z,71.81
2023-11-11T09:13:26.297Z,72.64
2023-11-11T09:18:19.973Z,73.58
2023-11-11T09:23:13.334Z,75.18
2023-11-11T09:28:08.265Z,77.51
2023-11-11T09:33:03.395Z,78.99
2023-11-11T09:37:57.458Z,80.70
2023-11-11T09:42:50.900Z,81.92
2023-11-11T09:47:45.485Z,83.38
2023-11-11T09:52:40.830Z,85.20
2023-11-11T09:57:34.730Z,85.45
2023-11-11T10:02:28.409Z,86.76
2023-11-11T10:07:23.063Z,85.88
2023-11-11T10:12:17.527Z,87.84
2023-11-11T10:17:16.573Z,89.67
2023-11-11T10:22:10.373Z,89.99
2023-11-11T10:27:04.093Z,91.28
2023-11-11T10:31:58.515Z,90.03
2023-11-11T10:36:51.499Z,91.12
2023-11-11T10:41:45.222Z,89.46
2023-11-11T10:46:41.113Z,89.47
2023-11-11T10:51:36.529Z,89.42
2023-11-11T10:56:29.970Z,89.26
2023-11-11T11:01:24.052Z,89.24
2023-11-11T11:06:22.115Z,88.10
2023-11-11T11:11:21.098Z,87.95
2023-11-11T11:16:17.641Z,88.22
2023-11-11T11:21:12.042Z,88.91
2023-11-11T11:26:05.197Z,88.70
2023-11-11T11:31:00.690Z,89.10
2023-11-11T11:35:55.608Z,89.91
2023-11-11T11:40:50.477Z,89.63
2023-11-11T11:45:43.493Z,89.19
2023-11-11T11:50:38.347Z,88.88
2023-11-11T11:55:39.584Z,88.90
2023-11-11T12:00:34.471Z,88.34
2023-11-11T12:05:27.750Z,87.12
2023-11-11T12:10:22.217Z,84.39
2023-11-11T12:15:17.195Z,84.11
2023-11-11T12:20:11.062Z,83.99
2023-11-11T12:25:05.093Z,83.95
2023-11-11T12:29:59.517Z,83.90
2023-11-11T12:34:54.670Z,84.38
2023-11-11T12:39:51.407Z,85.36
2023-11-11T12:44:44.590Z,85.90
2023-11-11T12:49:40.082Z,86.08
2023-11-11T12:54:34.615Z,85.66
2023-11-11T12:59:28.322Z,84.67
2023-11-11T13:04:22.491Z,85.17
2023-11-11T13:09:20.623Z,85.87
2023-11-11T13:14:14.069Z,83.99
2023-11-11T13:19:11.183Z,84.06
2023-11-11T13:24:08.206Z,84.48
2023-11-11T13:29:02.889Z,85.52
2023-11-11T13:33:56.195Z,87.57
2023-11-11T13:38:49.553Z,90.58
2023-11-11T13:43:47.127Z,91.70
2023-11-11T13:48:41.527Z,92.80
2023-11-11T13:53:34.620Z,92.52
2023-11-11T13:58:27.551Z,91.48
2023-11-11T14:03:23.638Z,92.09
2023-11-11T14:08:19.202Z,92.55
2023-11-11T14:13:13.611Z,93.58
2023-11-11T14:18:07.304Z,94.52
2023-11-11T14:23:01.951Z,95.63
2023-11-11T14:27:56.732Z,96.59
2023-11-11T14:32:50.090Z,97.09
2023-11-11T14:37:43.708Z,98.17
2023-11-11T14:42:36.664Z,98.24
2023-11-11T14:47:31.481Z,98.87
2023-11-11T14:52:26.934Z,99.26
2023-11-11T14:57:19.871Z,99.51
2023-11-11T15:02:13.094Z,98.66
2023-11-11T15:07:07.724Z,99.34
2023-11-11T15:12:00.673Z,99.90
2023-11-11T15:16:53.679Z,100.00
2023-11-11T15:21:50.399Z,100.00
2023-11-11T15:26:46.293Z,100.00
2023-11-11T15:31:41.795Z,100.00
2023-11-11T15:36:37.274Z,100.00
2023-11-11T15:41:32.825Z,100.00
2023-11-11T15:46:29.927Z,100.00
2023-11-11T15:51:24.126Z,100.00
2023-11-11T15:56:18.551Z,100.00
2023-11-11T16:01:14.581Z,100.00
2023-11-11T16:06:11.473Z,100.00
2023-11-11T16:11:05.763Z,100.00
2023-11-11T16:16:00.805Z,100.00
2023-11-11T16:20:53.722Z,100.00
2023-11-11T16:25:48.025Z,100.00
2023-11-11T16:30:41.520Z,100.00
2023-11-11T16:35:34.460Z,100.00
2023-11-11T16:40:27.451Z,100.00
2023-11-11T16:45:21.893Z,100.00
2023-11-11T16:50:16.307Z,100.00
2023-11-11T16:55:11.911Z,100.00
2023-11-11T17:00:06.389Z,100.00
2023-11-11T17:05:00.802Z,100.00
2023-11-11T17:09:53.905Z,100.00
2023-11-11T17:14:47.388Z,99.58
2023-11-11T17:19:40.266Z,99.11
2023-11-11T17:24:36.830Z,98.43
2023-11-11T17:29:30.277Z,98.65
2023-11-11T17:34:23.279Z,98.53
2023-11-11T17:39:16.306Z,98.77
2023-11-11T17:44:11.631Z,99.06
2023-11-11T17:49:04.565Z,98.68
2023-11-11T17:53:59.132Z,97.85
2023-11-11T17:58:52.122Z,96.47
2023-11-11T18:03:46.636Z,95.20
2023-11-11T18:08:39.741Z,93.98
2023-11-11T18:13:32.784Z,93.49
2023-11-11T18:18:25.801Z,93.52
2023-11-11T18:23:20.112Z,93.22
2023-11-11T18:28:14.308Z,93.03
2023-11-11T18:33:07.361Z,92.15
2023-11-11T18:38:03.107Z,91.50
2023-11-11T18:42:58.245Z,90.99
2023-11-11T18:47:51.342Z,90.86
2023-11-11T18:52:44.394Z,90.49
2023-11-11T18:57:37.364Z,90.27
2023-11-11T19:02:31.821Z,90.57
2023-11-11T19:07:26.001Z,90.78
2023-11-11T19:12:19.731Z,90.76
2023-11-11T19:17:12.727Z,90.62
2023-11-11T19:22:07.222Z,90.65
2023-11-11T19:27:00.181Z,90.23
2023-11-11T19:31:53.195Z,90.03
2023-11-11T19:36:46.159Z,89.62
2023-11-11T19:41:40.523Z,88.37
2023-11-11T19:46:34.414Z,87.38
2023-11-11T19:51:28.233Z,87.17
2023-11-11T19:56:21.617Z,86.87
2023-11-11T20:01:16.256Z,87.24
2023-11-11T20:06:09.731Z,87.06
2023-11-11T20:11:02.988Z,86.89
2023-11-11T20:15:56.171Z,86.38
2023-11-11T20:20:50.523Z,85.41
2023-11-11T20:25:43.913Z,84.75
2023-11-11T20:30:39.431Z,85.12
2023-11-11T20:35:32.642Z,85.43
2023-11-11T20:40:27.000Z,85.27
2023-11-11T20:45:20.080Z,84.89
2023-11-11T20:50:15.275Z,83.73
2023-11-11T20:55:08.844Z,82.74
2023-11-11T21:00:06.981Z,81.85
2023-11-11T21:05:04.342Z,82.42
2023-11-11T21:09:57.451Z,83.10
2023-11-11T21:14:50.470Z,83.67
2023-11-11T21:19:45.264Z,83.72
2023-11-11T21:24:38.366Z,84.06
2023-11-11T21:29:31.502Z,83.81
2023-11-11T21:34:24.458Z,83.59
2023-11-11T21:39:18.873Z,83.37
2023-11-11T21:44:14.490Z,82.53
2023-11-11T21:49:20.270Z,81.73
2023-11-11T21:54:13.350Z,81.22
2023-11-11T21:59:08.951Z,80.57
2023-11-11T22:04:02.613Z,79.71
2023-11-11T22:08:55.731Z,79.39
2023-11-11T22:13:49.274Z,79.57
2023-11-11T22:18:43.885Z,80.47
2023-11-11T22:23:36.954Z,80.57
2023-11-11T22:28:29.996Z,79.96
2023-11-11T22:33:23.081Z,79.83
2023-11-11T22:38:18.418Z,79.35
2023-11-11T22:43:11.564Z,78.90
2023-11-11T22:48:10.139Z,78.35
2023-11-11T22:53:03.348Z,78.62
2023-11-11T22:57:57.931Z,78.31
2023-11-11T23:02:51.047Z,76.96
2023-11-11T23:07:44.113Z,77.10
2023-11-11T23:12:37.223Z,77.78
2023-11-11T23:17:31.753Z,77.80
2023-11-11T23:22:24.891Z,77.21
2023-11-11T23:27:17.929Z,76.73
2023-11-11T23:32:11.139Z,76.93
2023-11-11T23:37:05.734Z,76.57
2023-11-11T23:41:58.714Z,76.11
2023-11-11T23:46:51.777Z,76.31
2023-11-11T23:51:47.669Z,76.28
2023-11-11T23:56:42.396Z,76.14
